Eira — OJJP — position and weather

sailwx.info

Track history (hours):
 
Tides and Currents Weather Stations Pressure Air Temp Water Temp Dewpoint Dewpoint Depression Visibility Wind Speed Wind Dir Waves Ship Positions

Eira

Last reported at 2016-May-06 21:32 UTC. Time now 2016-May-07 00:23 UTC.
Position N 57°44' E 009°04'.

Length 157 m; draft 9.2 m.

Type: Cargo ship. MMSI: 230935000.

Date/timePositionNaut miles runAvg speedWind from/ knotsBaromVisibWave heightAir tempDewpointWater temp
2016-May-06 21:32N 57°44' E 009°04'3811.0
2016-May-06 18:03N 57°42' E 007°52'910.4
2016-May-06 17:10N 57°42' E 007°35'710.5
2016-May-06 16:33N 57°43' E 007°23'1110.7
2016-May-06 15:33N 57°43' E 007°03'1110.4
2016-May-06 14:33N 57°44' E 006°44'9 9.4
2016-May-06 13:33N 57°47' E 006°27'10 9.9
2016-May-06 12:33N 57°54' E 006°13'1010.4
2016-May-06 11:33N 58°01' E 005°59'1111.0
2016-May-06 10:33N 58°08' E 005°43'1010.4
2016-May-06 09:33N 58°14' E 005°28'1110.5
2016-May-06 08:33N 58°22' E 005°13'1110.6
2016-May-06 07:33N 58°29' E 004°59'1110.8
2016-May-06 06:33N 58°37' E 004°45'1310.4
2016-May-06 05:20N 58°46' E 004°28'910.0
2016-May-06 04:28N 58°53' E 004°17'310 8.6
2016-May-04 16:32N 63°30' E 009°04'1212.5
2016-May-04 15:33N 63°36' E 009°28'9 9.5
2016-May-04 14:33N 63°35' E 009°50'1010.5
2016-May-04 13:33N 63°30' E 010°10'1313.2
2016-May-04 12:33N 63°37' E 010°36'1313.1
2016-May-04 11:33N 63°44' E 011°01'2 0.0
2016-May-02 09:29N 63°44' E 011°05'1112.4
2016-May-02 08:34N 63°39' E 010°43'1212.1
2016-May-02 07:34N 63°30' E 010°24'1010.0
2016-May-02 06:34N 63°28' E 010°02'17 8.4
2016-May-02 04:33N 63°35' E 009°27'1312.9
2016-May-02 03:33N 63°29' E 009°02'30911.0
2016-Apr-30 23:33N 58°47' E 004°40'1312.8
2016-Apr-30 22:33N 58°38' E 004°57'1312.5
2016-Apr-30 21:33N 58°29' E 005°13'1312.9
2016-Apr-30 20:32N 58°19' E 005°31'1313.0
2016-Apr-30 19:33N 58°11' E 005°50'1313.1
2016-Apr-30 18:33N 58°03' E 006°09'1413.6
2016-Apr-30 17:33N 57°54' E 006°28'1313.1
2016-Apr-30 16:33N 57°48' E 006°50'1313.4
2016-Apr-30 15:33N 57°48' E 007°15'10112.6
2016-Apr-30 07:32N 57°50' E 010°25'1211.8
2016-Apr-30 06:33N 57°47' E 010°47'1313.4
2016-Apr-30 05:34N 57°37' E 011°02'1313.2
2016-Apr-30 04:33N 57°24' E 011°08'1 0.6
2016-Apr-30 03:30N 57°23' E 011°08'0 0.1
2016-Apr-30 02:33N 57°23' E 011°08'0 0.4
2016-Apr-30 01:33N 57°24' E 011°08'9 9.0
2016-Apr-30 00:33N 57°23' E 010°51'1312.6
2016-Apr-29 23:32N 57°11' E 010°45'18 6.1
2016-Apr-29 20:32N 56°59' E 010°20'8 8.5
2016-Apr-29 19:33N 57°02' E 010°06'5 4.5
2016-Apr-29 18:33N 57°04' E 009°58'0 0.0
2016-Apr-29 17:33N 57°04' E 009°58'0 0.0
2016-Apr-29 16:33N 57°04' E 009°58'0 0.0
2016-Apr-29 15:33N 57°04' E 009°58'0 0.0
2016-Apr-29 14:33N 57°04' E 009°58'0 0.0
2016-Apr-29 13:33N 57°04' E 009°58'0 0.0
2016-Apr-29 12:30N 57°04' E 009°58'0 0.0
2016-Apr-29 11:33N 57°04' E 009°58'0 0.0
2016-Apr-29 10:33N 57°04' E 009°58'0 0.0
2016-Apr-29 09:33N 57°04' E 009°58'0 0.0
2016-Apr-29 08:33N 57°04' E 009°58'0 0.0
2016-Apr-29 07:33N 57°04' E 009°58'0 0.0
2016-Apr-29 06:33N 57°04' E 009°58'0 0.0
2016-Apr-29 05:33N 57°04' E 009°58'0 0.0
2016-Apr-29 04:33N 57°04' E 009°58'0 0.0
2016-Apr-29 03:33N 57°04' E 009°58'0 0.0
2016-Apr-29 02:33N 57°04' E 009°58'0 0.0
2016-Apr-29 01:33N 57°04' E 009°58'0 0.0
2016-Apr-29 00:33N 57°04' E 009°58'0 0.0
2016-Apr-28 23:33N 57°04' E 009°58'0 0.0
2016-Apr-28 22:33N 57°04' E 009°58'0 0.0
2016-Apr-28 21:33N 57°04' E 009°58'0 0.0
2016-Apr-28 20:33N 57°04' E 009°58'0 0.0
2016-Apr-28 19:33N 57°04' E 009°58'0 0.0
2016-Apr-28 18:33N 57°04' E 009°58'0 0.0
2016-Apr-28 17:33N 57°04' E 009°58'0 0.0
2016-Apr-28 16:33N 57°04' E 009°58'0 0.0
2016-Apr-28 15:33N 57°04' E 009°58'0 0.0
2016-Apr-28 14:33N 57°04' E 009°58'0 0.0
2016-Apr-28 13:33N 57°04' E 009°58'0 0.0
2016-Apr-28 12:30N 57°04' E 009°58'0 0.0
2016-Apr-28 11:33N 57°04' E 009°58'0 0.0
2016-Apr-28 10:33N 57°04' E 009°58'0 0.0
2016-Apr-28 09:33N 57°04' E 009°58'0 0.0
2016-Apr-28 08:33N 57°04' E 009°58'0 0.0
2016-Apr-28 07:33N 57°04' E 009°58'0 0.0
2016-Apr-28 06:33N 57°04' E 009°58'0 0.0
2016-Apr-28 05:33N 57°04' E 009°58'0 0.0
2016-Apr-28 04:33N 57°04' E 009°58'0 0.0
2016-Apr-28 03:33N 57°04' E 009°58'0 0.0
2016-Apr-28 02:33N 57°04' E 009°58'0 0.0
2016-Apr-28 01:33N 57°04' E 009°58'0 0.0
2016-Apr-28 00:33N 57°04' E 009°58'0 0.0
2016-Apr-27 23:33N 57°04' E 009°58'0 0.0
2016-Apr-27 22:33N 57°04' E 009°58'0 0.0
2016-Apr-27 21:33N 57°04' E 009°58'0 0.0
2016-Apr-27 20:33N 57°04' E 009°58'0 0.0
2016-Apr-27 19:33N 57°04' E 009°58'0 0.0
2016-Apr-27 18:33N 57°04' E 009°58'0 0.0
2016-Apr-27 17:33N 57°04' E 009°58'0 0.0
2016-Apr-27 16:33N 57°04' E 009°58'0 0.0
2016-Apr-27 15:33N 57°04' E 009°58'0 0.0
2016-Apr-27 14:33N 57°04' E 009°58'0 0.0
2016-Apr-27 13:33N 57°04' E 009°58'0 0.0
2016-Apr-27 12:33N 57°04' E 009°58'0 0.0
2016-Apr-27 11:33N 57°04' E 009°58'0 0.0
2016-Apr-27 10:33N 57°04' E 009°58'0 0.0
2016-Apr-27 09:33N 57°04' E 009°58'0 0.0
2016-Apr-27 08:33N 57°04' E 009°58'0 0.0
2016-Apr-27 07:33N 57°04' E 009°58'0 0.0
2016-Apr-27 06:33N 57°04' E 009°58'0 0.0
2016-Apr-27 05:33N 57°04' E 009°58'0 0.0
2016-Apr-27 04:33N 57°04' E 009°58'0 0.0
2016-Apr-27 03:33N 57°04' E 009°58'2 2.3
2016-Apr-27 02:34N 57°04' E 010°03'9 9.0
2016-Apr-27 01:33N 56°59' E 010°17'  
Track history (hours):
 
Tides and Currents Weather Stations Pressure Air Temp Water Temp Dewpoint Dewpoint Depression Visibility Wind Speed Wind Dir Waves Ship Positions

Eira

Last reported at 2016-May-06 21:32 UTC. Time now 2016-May-07 00:23 UTC.
Position N 57°44' E 009°04'.

Length 157 m; draft 9.2 m.

Type: Cargo ship. MMSI: 230935000.

Date/timePositionNaut miles runAvg speedWind from/ knotsBaromVisibWave heightAir tempDewpointWater temp
2016-May-06 21:32N 57°44' E 009°04'3811.0
2016-May-06 18:03N 57°42' E 007°52'910.4
2016-May-06 17:10N 57°42' E 007°35'710.5
2016-May-06 16:33N 57°43' E 007°23'1110.7
2016-May-06 15:33N 57°43' E 007°03'1110.4
2016-May-06 14:33N 57°44' E 006°44'9 9.4
2016-May-06 13:33N 57°47' E 006°27'10 9.9
2016-May-06 12:33N 57°54' E 006°13'1010.4
2016-May-06 11:33N 58°01' E 005°59'1111.0
2016-May-06 10:33N 58°08' E 005°43'1010.4
2016-May-06 09:33N 58°14' E 005°28'1110.5
2016-May-06 08:33N 58°22' E 005°13'1110.6
2016-May-06 07:33N 58°29' E 004°59'1110.8
2016-May-06 06:33N 58°37' E 004°45'1310.4
2016-May-06 05:20N 58°46' E 004°28'910.0
2016-May-06 04:28N 58°53' E 004°17'310 8.6
2016-May-04 16:32N 63°30' E 009°04'1212.5
2016-May-04 15:33N 63°36' E 009°28'9 9.5
2016-May-04 14:33N 63°35' E 009°50'1010.5
2016-May-04 13:33N 63°30' E 010°10'1313.2
2016-May-04 12:33N 63°37' E 010°36'1313.1
2016-May-04 11:33N 63°44' E 011°01'2 0.0
2016-May-02 09:29N 63°44' E 011°05'1112.4
2016-May-02 08:34N 63°39' E 010°43'1212.1
2016-May-02 07:34N 63°30' E 010°24'1010.0
2016-May-02 06:34N 63°28' E 010°02'17 8.4
2016-May-02 04:33N 63°35' E 009°27'1312.9
2016-May-02 03:33N 63°29' E 009°02'30911.0
2016-Apr-30 23:33N 58°47' E 004°40'1312.8
2016-Apr-30 22:33N 58°38' E 004°57'1312.5
2016-Apr-30 21:33N 58°29' E 005°13'1312.9
2016-Apr-30 20:32N 58°19' E 005°31'1313.0
2016-Apr-30 19:33N 58°11' E 005°50'1313.1
2016-Apr-30 18:33N 58°03' E 006°09'1413.6
2016-Apr-30 17:33N 57°54' E 006°28'1313.1
2016-Apr-30 16:33N 57°48' E 006°50'1313.4
2016-Apr-30 15:33N 57°48' E 007°15'10112.6
2016-Apr-30 07:32N 57°50' E 010°25'1211.8
2016-Apr-30 06:33N 57°47' E 010°47'1313.4
2016-Apr-30 05:34N 57°37' E 011°02'1313.2
2016-Apr-30 04:33N 57°24' E 011°08'1 0.6
2016-Apr-30 03:30N 57°23' E 011°08'0 0.1
2016-Apr-30 02:33N 57°23' E 011°08'0 0.4
2016-Apr-30 01:33N 57°24' E 011°08'9 9.0
2016-Apr-30 00:33N 57°23' E 010°51'1312.6
2016-Apr-29 23:32N 57°11' E 010°45'18 6.1
2016-Apr-29 20:32N 56°59' E 010°20'8 8.5
2016-Apr-29 19:33N 57°02' E 010°06'5 4.5
2016-Apr-29 18:33N 57°04' E 009°58'0 0.0
2016-Apr-29 17:33N 57°04' E 009°58'0 0.0
2016-Apr-29 16:33N 57°04' E 009°58'0 0.0
2016-Apr-29 15:33N 57°04' E 009°58'0 0.0
2016-Apr-29 14:33N 57°04' E 009°58'0 0.0
2016-Apr-29 13:33N 57°04' E 009°58'0 0.0
2016-Apr-29 12:30N 57°04' E 009°58'0 0.0
2016-Apr-29 11:33N 57°04' E 009°58'0 0.0
2016-Apr-29 10:33N 57°04' E 009°58'0 0.0
2016-Apr-29 09:33N 57°04' E 009°58'0 0.0
2016-Apr-29 08:33N 57°04' E 009°58'0 0.0
2016-Apr-29 07:33N 57°04' E 009°58'0 0.0
2016-Apr-29 06:33N 57°04' E 009°58'0 0.0
2016-Apr-29 05:33N 57°04' E 009°58'0 0.0
2016-Apr-29 04:33N 57°04' E 009°58'0 0.0
2016-Apr-29 03:33N 57°04' E 009°58'0 0.0
2016-Apr-29 02:33N 57°04' E 009°58'0 0.0
2016-Apr-29 01:33N 57°04' E 009°58'0 0.0
2016-Apr-29 00:33N 57°04' E 009°58'0 0.0
2016-Apr-28 23:33N 57°04' E 009°58'0 0.0
2016-Apr-28 22:33N 57°04' E 009°58'0 0.0
2016-Apr-28 21:33N 57°04' E 009°58'0 0.0
2016-Apr-28 20:33N 57°04' E 009°58'0 0.0
2016-Apr-28 19:33N 57°04' E 009°58'0 0.0
2016-Apr-28 18:33N 57°04' E 009°58'0 0.0
2016-Apr-28 17:33N 57°04' E 009°58'0 0.0
2016-Apr-28 16:33N 57°04' E 009°58'0 0.0
2016-Apr-28 15:33N 57°04' E 009°58'0 0.0
2016-Apr-28 14:33N 57°04' E 009°58'0 0.0
2016-Apr-28 13:33N 57°04' E 009°58'0 0.0
2016-Apr-28 12:30N 57°04' E 009°58'0 0.0
2016-Apr-28 11:33N 57°04' E 009°58'0 0.0
2016-Apr-28 10:33N 57°04' E 009°58'0 0.0
2016-Apr-28 09:33N 57°04' E 009°58'0 0.0
2016-Apr-28 08:33N 57°04' E 009°58'0 0.0
2016-Apr-28 07:33N 57°04' E 009°58'0 0.0
2016-Apr-28 06:33N 57°04' E 009°58'0 0.0
2016-Apr-28 05:33N 57°04' E 009°58'0 0.0
2016-Apr-28 04:33N 57°04' E 009°58'0 0.0
2016-Apr-28 03:33N 57°04' E 009°58'0 0.0
2016-Apr-28 02:33N 57°04' E 009°58'0 0.0
2016-Apr-28 01:33N 57°04' E 009°58'0 0.0
2016-Apr-28 00:33N 57°04' E 009°58'0 0.0
2016-Apr-27 23:33N 57°04' E 009°58'0 0.0
2016-Apr-27 22:33N 57°04' E 009°58'0 0.0
2016-Apr-27 21:33N 57°04' E 009°58'0 0.0
2016-Apr-27 20:33N 57°04' E 009°58'0 0.0
2016-Apr-27 19:33N 57°04' E 009°58'0 0.0
2016-Apr-27 18:33N 57°04' E 009°58'0 0.0
2016-Apr-27 17:33N 57°04' E 009°58'0 0.0
2016-Apr-27 16:33N 57°04' E 009°58'0 0.0
2016-Apr-27 15:33N 57°04' E 009°58'0 0.0
2016-Apr-27 14:33N 57°04' E 009°58'0 0.0
2016-Apr-27 13:33N 57°04' E 009°58'0 0.0
2016-Apr-27 12:33N 57°04' E 009°58'0 0.0
2016-Apr-27 11:33N 57°04' E 009°58'0 0.0
2016-Apr-27 10:33N 57°04' E 009°58'0 0.0
2016-Apr-27 09:33N 57°04' E 009°58'0 0.0
2016-Apr-27 08:33N 57°04' E 009°58'0 0.0
2016-Apr-27 07:33N 57°04' E 009°58'0 0.0
2016-Apr-27 06:33N 57°04' E 009°58'0 0.0
2016-Apr-27 05:33N 57°04' E 009°58'0 0.0
2016-Apr-27 04:33N 57°04' E 009°58'0 0.0
2016-Apr-27 03:33N 57°04' E 009°58'2 2.3
2016-Apr-27 02:34N 57°04' E 010°03'9 9.0
2016-Apr-27 01:33N 56°59' E 010°17'  

Dump ship's entire track history